Time;durP1;ratioP1;P1;durP2;ratioP2;P2;SDS_P1;SDS_P2;PMS_P1;PMS_P2;Temp;Humidity;BMP_temperature;BMP_pressure;BME280_temperature;BME280_humidity;BME280_pressure;Samples;Min_cycle;Max_cycle;Signal;HPM_P1;HPM_P2
2022/08/02 00:00:55;;;;;;;3.05;0.13;;;14.80;99.90;;;;;;5093975;28;20026;-74
2022/08/02 00:03:21;;;;;;;1.45;0.10;;;14.80;99.90;;;;;;5092817;28;20059;-74
2022/08/02 00:05:46;;;;;;;0.35;0.00;;;14.80;99.90;;;;;;5094042;28;20020;-74
2022/08/02 00:08:12;;;;;;;0.57;0.00;;;14.80;99.90;;;;;;5094031;28;20481;-74
2022/08/02 00:10:37;;;;;;;0.38;0.00;;;14.80;99.90;;;;;;5092422;28;20050;-74
2022/08/02 00:13:03;;;;;;;0.73;0.00;;;14.90;99.90;;;;;;5092645;28;20020;-73
2022/08/02 00:15:29;;;;;;;2.92;0.00;;;14.80;99.90;;;;;;5094133;28;20035;-73
2022/08/02 00:17:54;;;;;;;1.70;0.00;;;14.80;99.90;;;;;;5093908;28;20016;-73
2022/08/02 00:20:20;;;;;;;1.50;0.10;;;14.80;99.90;;;;;;5093691;28;20023;-73
2022/08/02 00:22:45;;;;;;;1.80;0.00;;;14.70;99.90;;;;;;5094186;28;20028;-74
2022/08/02 00:25:11;;;;;;;1.40;0.00;;;14.70;99.90;;;;;;5093970;28;20049;-74
2022/08/02 00:27:36;;;;;;;0.35;0.00;;;14.70;99.90;;;;;;5092470;28;20024;-74
2022/08/02 00:30:02;;;;;;;4.85;0.52;;;14.60;99.90;;;;;;5093648;28;20024;-74
2022/08/02 00:32:28;;;;;;;2.75;0.47;;;14.60;99.90;;;;;;5092406;28;20031;-74
2022/08/02 00:34:54;;;;;;;1.50;0.30;;;14.50;99.90;;;;;;5092450;28;20012;-74
2022/08/02 00:37:19;;;;;;;1.67;0.10;;;14.50;99.90;;;;;;5092420;28;20012;-74
2022/08/02 00:39:45;;;;;;;0.20;0.00;;;14.40;99.90;;;;;;5093672;28;20450;-74
2022/08/02 00:42:13;;;;;;;1.00;0.28;;;14.50;99.90;;;;;;5093562;28;20078;-74
2022/08/02 00:44:39;;;;;;;1.70;0.10;;;14.40;99.90;;;;;;5094209;28;20020;-74
2022/08/02 00:47:04;;;;;;;8.38;0.55;;;14.40;99.90;;;;;;5093442;28;20034;-74
2022/08/02 00:49:30;;;;;;;3.13;0.28;;;14.40;99.90;;;;;;5092277;28;20062;-74
2022/08/02 00:51:56;;;;;;;0.70;0.00;;;14.30;99.90;;;;;;5093517;28;20032;-74
2022/08/02 00:54:22;;;;;;;0.65;0.00;;;14.30;99.90;;;;;;5092180;28;20020;-74
2022/08/02 00:56:47;;;;;;;0.90;0.00;;;14.30;99.90;;;;;;5093409;28;20065;-74
2022/08/02 00:59:13;;;;;;;1.75;0.10;;;14.30;99.90;;;;;;5093528;28;20020;-74
2022/08/02 01:01:39;;;;;;;2.50;0.10;;;14.40;99.90;;;;;;5095889;28;20142;-74
2022/08/02 01:04:06;;;;;;;0.65;0.10;;;14.30;99.90;;;;;;5097486;28;20468;-74
2022/08/02 01:06:32;;;;;;;2.60;0.00;;;14.30;99.90;;;;;;5097345;28;20020;-74
2022/08/02 01:08:59;;;;;;;0.50;0.03;;;14.30;99.90;;;;;;5097551;28;20118;-74
2022/08/02 01:11:25;;;;;;;1.70;0.28;;;14.30;99.90;;;;;;5097491;28;20109;-74
2022/08/02 01:13:51;;;;;;;1.75;0.00;;;14.30;99.90;;;;;;5096038;28;20047;-74
2022/08/02 01:16:22;;;;;;;2.72;0.32;;;14.30;99.90;;;;;;5097313;28;20020;-74
2022/08/02 01:18:54;;;;;;;2.95;0.03;;;14.30;99.90;;;;;;5097654;28;20024;-74
2022/08/02 01:21:42;;;;;;;1.02;0.00;;;14.30;99.90;;;;;;5097383;28;20031;-74
2022/08/02 01:24:22;;;;;;;1.45;0.00;;;14.30;99.90;;;;;;5095517;28;20032;-74
2022/08/02 01:27:25;;;;;;;0.77;0.10;;;14.30;99.90;;;;;;5096982;28;20025;-74
2022/08/02 01:29:55;;;;;;;0.90;0.00;;;14.40;99.90;;;;;;5097276;28;20433;-74
2022/08/02 01:32:30;;;;;;;1.10;0.10;;;14.40;99.90;;;;;;5097089;28;20103;-74
2022/08/02 01:35:06;;;;;;;0.40;0.00;;;14.40;99.90;;;;;;5095618;28;20047;-74
2022/08/02 01:37:40;;;;;;;3.03;0.10;;;14.50;99.90;;;;;;5096930;28;20043;-74
2022/08/02 01:40:13;;;;;;;2.45;0.20;;;14.50;99.90;;;;;;5096767;28;20024;-74
2022/08/02 01:42:46;;;;;;;2.15;0.10;;;14.60;99.90;;;;;;5097244;28;20028;-73
2022/08/02 01:45:13;;;;;;;1.65;0.22;;;14.60;99.90;;;;;;5096735;28;20024;-73
2022/08/02 01:47:41;;;;;;;1.55;0.10;;;14.70;99.90;;;;;;5095343;28;20031;-73
2022/08/02 01:50:11;;;;;;;20.60;0.40;;;14.70;99.90;;;;;;5097209;28;20058;-73
2022/08/02 01:52:44;;;;;;;2.40;0.10;;;14.80;99.90;;;;;;5097373;28;20123;-73
2022/08/02 01:55:22;;;;;;;1.45;0.10;;;14.80;99.90;;;;;;5097148;28;20044;-73
2022/08/02 01:57:56;;;;;;;1.50;0.00;;;14.90;99.90;;;;;;5096605;28;20055;-73
2022/08/02 02:00:25;;;;;;;2.35;0.00;;;15.00;99.90;;;;;;5095171;28;20028;-73
2022/08/02 02:02:54;;;;;;;3.30;0.00;;;15.00;99.90;;;;;;5096291;28;20024;-73
2022/08/02 02:05:22;;;;;;;1.92;0.20;;;15.00;99.90;;;;;;5096205;28;20118;-73
2022/08/02 02:07:54;;;;;;;2.95;0.00;;;15.10;99.90;;;;;;5096383;28;20050;-73
2022/08/02 02:10:27;;;;;;;0.20;0.00;;;15.20;99.90;;;;;;5096138;28;20405;-73
2022/08/02 02:12:53;;;;;;;1.48;0.00;;;15.20;99.90;;;;;;5094923;28;20024;-73
2022/08/02 02:15:21;;;;;;;0.30;0.00;;;15.20;99.90;;;;;;5096097;28;20028;-73
2022/08/02 02:17:50;;;;;;;0.65;0.00;;;15.20;99.90;;;;;;5096074;28;20024;-73
2022/08/02 02:20:18;;;;;;;0.55;0.00;;;15.20;99.90;;;;;;5096223;28;20389;-73
2022/08/02 02:22:44;;;;;;;2.40;0.00;;;15.20;99.90;;;;;;5095133;28;20169;-73
2022/08/02 02:25:12;;;;;;;2.92;0.32;;;15.20;99.90;;;;;;5094681;28;20064;-73
2022/08/02 02:27:45;;;;;;;4.10;0.00;;;15.20;99.90;;;;;;5095924;28;20024;-73
2022/08/02 02:30:11;;;;;;;2.13;0.03;;;15.20;99.90;;;;;;5095734;28;20505;-73
2022/08/02 02:32:39;;;;;;;0.50;0.00;;;15.20;99.90;;;;;;5094475;28;20119;-74
2022/08/02 02:35:07;;;;;;;3.13;0.30;;;15.20;99.90;;;;;;5095955;28;20081;-73
2022/08/02 02:37:34;;;;;;;1.33;0.10;;;15.10;99.90;;;;;;5096095;28;20089;-73
2022/08/02 02:40:01;;;;;;;3.58;0.10;;;15.10;99.90;;;;;;5095580;28;20099;-73
2022/08/02 02:42:30;;;;;;;0.77;0.00;;;15.10;99.90;;;;;;5095912;28;20030;-73
2022/08/02 02:45:01;;;;;;;1.35;0.10;;;15.20;99.90;;;;;;5095852;28;20024;-74
2022/08/02 02:47:30;;;;;;;1.80;0.10;;;15.20;99.90;;;;;;5095715;28;20091;-73
2022/08/02 02:49:56;;;;;;;1.35;0.10;;;15.30;99.90;;;;;;5095473;28;20061;-73
2022/08/02 02:52:23;;;;;;;0.98;0.10;;;15.30;99.90;;;;;;5094183;28;20520;-73
2022/08/02 02:54:50;;;;;;;0.40;0.00;;;15.20;99.90;;;;;;5095762;28;20054;-73
2022/08/02 02:57:16;;;;;;;3.38;0.05;;;15.40;99.90;;;;;;5095310;28;20024;-73
2022/08/02 02:59:43;;;;;;;4.25;0.10;;;15.40;99.90;;;;;;5094137;28;20107;-73
2022/08/02 03:02:10;;;;;;;2.65;0.45;;;15.40;99.90;;;;;;5094008;28;20024;-73
2022/08/02 03:04:36;;;;;;;3.70;0.20;;;15.40;99.90;;;;;;5095169;28;20027;-73
2022/08/02 03:07:02;;;;;;;1.95;0.10;;;15.40;99.90;;;;;;5095176;28;20028;-73
2022/08/02 03:09:28;;;;;;;5.28;0.10;;;15.50;99.90;;;;;;5093821;28;20119;-74
2022/08/02 03:11:55;;;;;;;0.30;0.05;;;15.50;99.90;;;;;;5095192;28;20099;-73
2022/08/02 03:14:21;;;;;;;2.38;0.10;;;15.50;99.90;;;;;;5095221;28;20469;-73
2022/08/02 03:16:49;;;;;;;2.17;0.10;;;15.50;99.90;;;;;;5094873;28;20020;-73
2022/08/02 03:19:15;;;;;;;4.57;0.25;;;15.50;99.90;;;;;;5095288;28;20016;-73
2022/08/02 03:21:42;;;;;;;1.00;0.25;;;15.50;99.90;;;;;;5093532;28;20031;-74
2022/08/02 03:24:08;;;;;;;4.15;0.10;;;15.60;99.90;;;;;;5095000;28;20125;-74
2022/08/02 03:26:34;;;;;;;2.38;0.63;;;15.70;99.90;;;;;;5094093;28;20488;-74
2022/08/02 03:29:00;;;;;;;1.60;0.20;;;15.50;99.90;;;;;;5094921;28;20505;-74
2022/08/02 03:31:25;;;;;;;1.23;0.10;;;15.50;99.90;;;;;;5094892;28;20107;-74
2022/08/02 03:33:52;;;;;;;6.75;0.28;;;15.90;99.90;;;;;;5094632;28;20026;-74
2022/08/02 03:36:21;;;;;;;3.58;0.30;;;15.50;99.90;;;;;;5094782;28;20017;-74
2022/08/02 03:38:48;;;;;;;1.88;0.00;;;15.50;99.90;;;;;;5094555;28;20021;-74
2022/08/02 03:41:16;;;;;;;1.38;0.30;;;15.50;99.90;;;;;;5094407;28;20028;-74
2022/08/02 03:43:43;;;;;;;1.23;0.15;;;15.50;99.90;;;;;;5093199;28;20027;-74
2022/08/02 03:46:11;;;;;;;7.35;0.52;;;15.50;99.90;;;;;;5094367;28;20562;-74
2022/08/02 03:48:37;;;;;;;0.57;0.27;;;15.50;99.90;;;;;;5094424;28;20027;-74
2022/08/02 03:51:03;;;;;;;1.73;0.00;;;15.50;99.90;;;;;;5094164;28;20099;-74
2022/08/02 03:53:29;;;;;;;2.35;0.43;;;15.50;99.90;;;;;;5092913;28;20019;-74
2022/08/02 03:55:55;;;;;;;5.05;0.38;;;15.50;99.90;;;;;;5094452;28;20031;-74
2022/08/02 03:58:23;;;;;;;1.92;0.00;;;15.50;99.90;;;;;;5094310;28;20024;-74
2022/08/02 04:00:49;;;;;;;3.13;0.45;;;15.40;99.90;;;;;;5092828;28;20024;-74
2022/08/02 04:03:14;;;;;;;2.55;0.10;;;15.30;99.90;;;;;;5094080;28;20028;-74
2022/08/02 04:05:40;;;;;;;1.33;0.00;;;15.30;99.90;;;;;;5094610;28;20111;-75
2022/08/02 04:08:06;;;;;;;1.55;0.10;;;15.30;99.90;;;;;;5095030;28;20052;-73
2022/08/02 04:11:29;;;;;;;4.97;0.38;;;15.30;99.90;;;;;;5094155;28;20032;-75
2022/08/02 04:13:24;;;;;;;0.28;0.28;;;15.20;99.90;;;;;;5093611;28;20043;-75
2022/08/02 04:15:54;;;;;;;2.42;0.05;;;15.20;99.90;;;;;;5093743;28;20072;-75
2022/08/02 04:18:24;;;;;;;2.67;0.45;;;15.20;99.90;;;;;;5093710;28;20496;-75
2022/08/02 04:20:51;;;;;;;4.82;0.38;;;15.20;99.90;;;;;;5093601;28;20063;-75
2022/08/02 04:23:17;;;;;;;2.08;0.20;;;15.20;99.90;;;;;;5092465;28;20024;-75
2022/08/02 04:25:44;;;;;;;2.00;0.17;;;15.20;99.90;;;;;;5093555;28;20026;-75
2022/08/02 04:28:11;;;;;;;1.50;0.47;;;15.30;99.90;;;;;;5094148;28;20463;-75
2022/08/02 04:30:38;;;;;;;3.63;0.55;;;15.10;99.90;;;;;;5092222;28;20031;-75
2022/08/02 04:33:04;;;;;;;2.42;0.10;;;15.10;99.90;;;;;;5093771;28;20536;-75
2022/08/02 04:35:30;;;;;;;2.33;0.00;;;15.00;99.90;;;;;;5092765;28;20020;-75
2022/08/02 04:37:55;;;;;;;2.50;0.13;;;15.00;99.90;;;;;;5093613;28;20020;-75
2022/08/02 04:40:21;;;;;;;2.63;0.20;;;15.00;99.90;;;;;;5092103;28;20533;-75
2022/08/02 04:42:46;;;;;;;2.47;0.00;;;15.00;99.90;;;;;;5093483;28;20035;-75
2022/08/02 04:45:13;;;;;;;5.10;0.35;;;15.00;99.90;;;;;;5093436;28;20025;-75
2022/08/02 04:47:38;;;;;;;2.85;0.20;;;15.50;99.90;;;;;;5093464;28;20031;-75
2022/08/02 04:50:04;;;;;;;7.13;0.35;;;15.00;99.90;;;;;;5093490;28;20028;-75
2022/08/02 04:52:30;;;;;;;0.10;0.00;;;15.10;99.90;;;;;;5093237;28;20508;-75
2022/08/02 04:54:55;;;;;;;4.10;0.20;;;15.10;99.90;;;;;;5093246;28;20024;-75
2022/08/02 05:00:07;;;;;;;2.00;0.32;;;15.20;99.90;;;;;;5093493;28;20031;-75
2022/08/02 05:02:34;;;;;;;3.53;0.30;;;15.30;99.90;;;;;;5091918;28;20539;-75
2022/08/02 05:04:59;;;;;;;6.72;0.10;;;15.30;99.90;;;;;;5093373;28;20035;-75
2022/08/02 05:07:25;;;;;;;0.50;0.08;;;15.40;99.90;;;;;;5093196;28;20469;-75
2022/08/02 05:09:50;;;;;;;3.80;0.20;;;15.50;99.90;;;;;;5093055;28;20400;-76
2022/08/02 05:12:16;;;;;;;2.05;0.20;;;16.50;99.90;;;;;;5091679;28;20036;-75
2022/08/02 05:14:41;;;;;;;2.90;0.30;;;15.60;99.90;;;;;;5091770;28;20114;-75
2022/08/02 05:17:07;;;;;;;3.63;0.47;;;16.90;99.90;;;;;;5093575;28;20448;-75
2022/08/02 05:19:32;;;;;;;2.45;0.55;;;15.70;99.90;;;;;;5091848;28;20035;-75
2022/08/02 05:21:58;;;;;;;2.58;0.40;;;16.10;99.90;;;;;;5092911;28;20046;-75
2022/08/02 05:24:24;;;;;;;2.47;0.25;;;15.80;99.90;;;;;;5091785;28;20063;-75
2022/08/02 05:26:49;;;;;;;3.75;0.45;;;15.90;99.90;;;;;;5093091;28;20039;-75
2022/08/02 05:29:15;;;;;;;3.60;0.68;;;15.90;99.90;;;;;;5092992;28;20036;-75
2022/08/02 05:31:41;;;;;;;4.57;0.40;;;16.00;99.90;;;;;;5092796;28;20024;-75
2022/08/02 05:34:07;;;;;;;4.38;0.43;;;16.10;99.90;;;;;;5093288;28;20039;-75
2022/08/02 05:36:32;;;;;;;1.85;0.20;;;16.20;99.90;;;;;;5092881;28;20032;-75
2022/08/02 05:38:58;;;;;;;4.10;0.45;;;16.20;99.90;;;;;;5092958;28;20534;-75
2022/08/02 05:41:23;;;;;;;2.25;0.10;;;16.30;99.90;;;;;;5091561;28;20420;-75
2022/08/02 05:43:49;;;;;;;5.47;0.88;;;16.40;99.90;;;;;;5093122;28;20024;-75
2022/08/02 05:46:14;;;;;;;2.25;0.22;;;16.50;99.90;;;;;;5092924;28;20051;-75
2022/08/02 05:48:40;;;;;;;3.80;0.30;;;16.60;99.90;;;;;;5097062;28;20032;-75
2022/08/02 05:51:11;;;;;;;3.55;0.60;;;16.80;99.90;;;;;;5096241;28;20362;-75
2022/08/02 05:53:43;;;;;;;3.20;0.30;;;16.80;99.90;;;;;;5096553;28;20049;-75
2022/08/02 05:56:37;;;;;;;1.35;0.28;;;16.80;99.90;;;;;;5096729;28;20020;-75
2022/08/02 05:59:10;;;;;;;1.67;0.40;;;16.90;99.90;;;;;;5095029;28;20020;-75
2022/08/02 06:01:40;;;;;;;6.40;0.50;;;16.90;99.90;;;;;;5096493;28;20073;-75
2022/08/02 06:04:12;;;;;;;1.52;0.47;;;16.80;99.90;;;;;;5096172;28;20166;-75
2022/08/02 06:06:42;;;;;;;4.70;0.90;;;17.10;99.90;;;;;;5096243;28;20424;-75
2022/08/02 06:09:14;;;;;;;9.52;0.85;;;16.90;99.90;;;;;;5094678;28;20024;-75
2022/08/02 06:11:44;;;;;;;3.47;0.68;;;16.90;99.90;;;;;;5095997;28;20416;-75
2022/08/02 06:14:11;;;;;;;1.30;0.80;;;17.00;99.90;;;;;;5096289;28;20046;-75
2022/08/02 06:16:38;;;;;;;4.35;1.33;;;17.10;99.90;;;;;;5095982;28;20023;-75
2022/08/02 06:19:04;;;;;;;4.15;0.77;;;17.20;99.90;;;;;;5096275;28;20115;-75
2022/08/02 06:21:30;;;;;;;4.72;1.35;;;17.40;99.90;;;;;;5095827;28;20028;-75
2022/08/02 06:24:00;;;;;;;7.60;0.90;;;17.50;99.90;;;;;;5094557;28;20023;-75
2022/08/02 06:26:27;;;;;;;8.50;1.05;;;17.60;99.90;;;;;;5094423;28;20034;-75
2022/08/02 06:28:54;;;;;;;2.40;1.08;;;17.70;99.90;;;;;;5095793;28;20024;-75
2022/08/02 06:31:20;;;;;;;3.25;1.25;;;17.80;99.90;;;;;;5095834;28;20020;-75
2022/08/02 06:33:46;;;;;;;5.25;1.55;;;18.30;99.90;;;;;;5094385;28;20381;-75
2022/08/02 06:36:20;;;;;;;13.15;2.22;;;18.00;99.90;;;;;;5095599;28;20020;-75
2022/08/02 06:39:00;;;;;;;6.05;1.48;;;18.20;99.90;;;;;;5095555;28;20024;-75
2022/08/02 06:41:30;;;;;;;3.13;1.70;;;18.40;99.90;;;;;;5095592;28;20044;-75
2022/08/02 06:43:59;;;;;;;3.22;1.17;;;18.50;99.90;;;;;;5095806;28;20480;-75
2022/08/02 06:46:25;;;;;;;3.90;1.50;;;18.60;99.90;;;;;;5094195;28;20111;-75
2022/08/02 06:48:51;;;;;;;3.33;1.33;;;18.70;99.90;;;;;;5095548;28;20055;-75
2022/08/02 06:51:17;;;;;;;4.40;1.50;;;18.90;99.90;;;;;;5095186;28;20500;-75
2022/08/02 06:53:43;;;;;;;4.40;1.10;;;19.00;99.90;;;;;;5095620;28;20077;-75
2022/08/02 06:56:09;;;;;;;3.20;1.70;;;19.10;99.90;;;;;;5095495;28;20021;-75
2022/08/02 06:58:34;;;;;;;3.80;1.65;;;19.20;99.90;;;;;;5094655;28;20347;-75
2022/08/02 07:01:00;;;;;;;3.88;1.13;;;19.60;99.90;;;;;;5093744;28;20020;-75
2022/08/02 07:03:26;;;;;;;4.47;1.83;;;19.30;99.90;;;;;;5093854;28;20380;-75
2022/08/02 07:05:53;;;;;;;4.95;1.77;;;19.50;99.90;;;;;;5094967;28;20024;-75
2022/08/02 07:08:19;;;;;;;8.27;1.63;;;19.50;99.90;;;;;;5095032;28;20504;-75
2022/08/02 07:10:45;;;;;;;6.93;1.73;;;19.70;99.90;;;;;;5115999;22;20043;-74
2022/08/02 07:13:11;;;;;;;7.18;1.70;;;19.70;99.90;;;;;;5115087;28;20376;-74
2022/08/02 07:15:37;;;;;;;6.80;1.65;;;19.80;99.90;;;;;;5114700;28;20075;-74
2022/08/02 07:18:04;;;;;;;2.63;1.55;;;19.80;99.90;;;;;;5115121;28;20031;-74
2022/08/02 07:20:30;;;;;;;5.95;1.98;;;19.90;99.90;;;;;;5115285;28;20453;-74
2022/08/02 07:22:56;;;;;;;6.90;2.00;;;20.10;99.90;;;;;;5113767;28;20033;-74
2022/08/02 07:25:21;;;;;;;3.65;1.27;;;20.10;99.90;;;;;;5114925;28;20020;-74
2022/08/02 07:27:47;;;;;;;7.93;1.85;;;20.20;99.90;;;;;;5113719;28;20016;-74
2022/08/02 07:30:13;;;;;;;8.80;1.75;;;20.30;99.90;;;;;;5114714;28;20114;-74
2022/08/02 07:32:38;;;;;;;5.15;2.13;;;20.30;99.90;;;;;;5114756;28;20106;-74
2022/08/02 07:35:05;;;;;;;4.13;2.10;;;20.50;99.90;;;;;;5113544;28;20019;-74
2022/08/02 07:37:32;;;;;;;8.68;2.83;;;20.60;99.90;;;;;;5114762;28;20031;-74
2022/08/02 07:39:58;;;;;;;4.82;1.90;;;20.80;99.90;;;;;;5114720;28;20054;-74
2022/08/02 07:42:23;;;;;;;3.92;2.10;;;21.00;99.90;;;;;;5113390;28;20055;-74
2022/08/02 07:44:50;;;;;;;9.52;3.13;;;21.20;99.90;;;;;;5114652;28;20027;-74
2022/08/02 07:47:16;;;;;;;7.75;3.40;;;21.30;99.90;;;;;;5113258;28;20511;-74
2022/08/02 07:49:41;;;;;;;10.63;3.38;;;21.40;99.90;;;;;;5114388;28;20102;-74
2022/08/02 07:52:07;;;;;;;8.60;3.05;;;21.50;99.90;;;;;;5114322;28;20023;-74
2022/08/02 07:54:32;;;;;;;5.72;3.35;;;21.50;99.90;;;;;;5113180;28;20357;-75
2022/08/02 07:56:59;;;;;;;6.80;3.80;;;21.60;99.90;;;;;;5114805;28;20074;-75
2022/08/02 07:59:24;;;;;;;9.32;3.42;;;21.70;99.90;;;;;;5114687;28;20483;-75
2022/08/02 08:01:50;;;;;;;9.73;4.05;;;21.90;99.90;;;;;;5114188;28;20016;-75
2022/08/02 08:04:16;;;;;;;8.15;2.83;;;21.90;99.90;;;;;;5114242;28;20023;-75
2022/08/02 08:06:42;;;;;;;9.93;3.63;;;22.10;99.90;;;;;;5114595;28;20023;-74
2022/08/02 08:09:09;;;;;;;7.05;2.30;;;22.20;99.90;;;;;;5114111;28;20076;-74
2022/08/02 08:11:35;;;;;;;5.90;2.80;;;22.20;99.90;;;;;;5114069;28;20027;-75
2022/08/02 08:14:01;;;;;;;6.07;2.95;;;22.30;99.90;;;;;;5114128;28;20054;-75
2022/08/02 08:16:28;;;;;;;7.45;1.90;;;22.30;99.90;;;;;;5114267;28;20019;-74
2022/08/02 08:18:54;;;;;;;5.88;2.03;;;22.30;99.90;;;;;;5114198;28;20019;-75
2022/08/02 08:21:20;;;;;;;3.25;0.93;;;22.20;99.90;;;;;;5113795;28;20065;-75
2022/08/02 08:23:45;;;;;;;3.33;1.48;;;22.30;99.90;;;;;;5114540;28;20024;-75
2022/08/02 08:26:11;;;;;;;4.57;1.05;;;22.40;99.90;;;;;;5113934;28;20099;-75
2022/08/02 08:28:36;;;;;;;2.92;0.47;;;22.50;99.90;;;;;;5114463;28;20047;-75
2022/08/02 08:31:02;;;;;;;2.05;0.60;;;22.60;99.90;;;;;;5112738;28;20016;-75
2022/08/02 08:33:27;;;;;;;2.78;0.38;;;22.60;99.90;;;;;;5113833;28;20016;-75
2022/08/02 08:35:54;;;;;;;1.50;0.82;;;22.70;99.90;;;;;;5113811;28;20464;-75
2022/08/02 08:38:20;;;;;;;3.17;1.05;;;22.70;99.90;;;;;;5113766;28;20024;-75
2022/08/02 08:40:48;;;;;;;3.58;0.95;;;22.70;99.90;;;;;;5113729;28;20027;-75
2022/08/02 08:43:14;;;;;;;2.03;0.63;;;22.60;99.90;;;;;;5113749;28;20027;-75
2022/08/02 08:45:45;;;;;;;1.00;0.70;;;22.40;99.90;;;;;;5112573;28;20030;-75
2022/08/02 08:48:14;;;;;;;1.75;0.45;;;22.50;99.90;;;;;;5113774;28;20054;-75
2022/08/02 08:51:03;;;;;;;;;;;22.60;99.90;;;;;;5112901;28;20572;-75
2022/08/02 08:53:30;;;;;;;1.77;0.68;;;22.60;99.90;;;;;;5101569;28;19908;-76
2022/08/02 08:55:57;;;;;;;5.20;1.45;;;22.80;99.90;;;;;;5114032;28;20024;-75
2022/08/02 08:58:23;;;;;;;3.47;0.50;;;22.90;99.90;;;;;;5112358;28;20055;-75
2022/08/02 09:00:49;;;;;;;2.97;0.98;;;23.00;99.90;;;;;;5112239;28;20031;-75
2022/08/02 09:03:15;;;;;;;2.70;1.05;;;23.10;99.90;;;;;;5113630;28;20047;-75
2022/08/02 09:05:42;;;;;;;3.75;0.93;;;23.20;99.90;;;;;;5113674;28;20054;-75
2022/08/02 09:08:08;;;;;;;2.38;0.73;;;23.30;99.90;;;;;;5112292;28;20015;-75
2022/08/02 09:10:43;;;;;;;3.75;1.38;;;23.40;99.90;;;;;;5112104;28;20487;-75
2022/08/02 09:13:14;;;;;;;5.22;1.63;;;23.50;99.90;;;;;;5113297;28;20019;-75
2022/08/02 09:15:41;;;;;;;5.97;2.10;;;23.80;99.90;;;;;;5113536;28;20026;-75
2022/08/02 09:18:08;;;;;;;3.70;1.98;;;23.90;99.90;;;;;;5113458;28;20024;-75
2022/08/02 09:20:49;;;;;;;7.63;2.38;;;24.10;99.90;;;;;;5112066;28;20076;-76
2022/08/02 09:23:15;;;;;;;5.43;2.50;;;24.40;99.90;;;;;;5116930;28;20080;-75
2022/08/02 09:25:40;;;;;;;7.60;3.72;;;24.20;99.90;;;;;;5116202;28;20015;-75
2022/08/02 09:28:06;;;;;;;5.03;2.20;;;24.20;99.90;;;;;;5117322;28;20016;-75
2022/08/02 09:30:41;;;;;;;4.38;2.42;;;24.10;99.90;;;;;;5116045;28;20024;-75
2022/08/02 09:33:07;;;;;;;6.05;3.33;;;24.30;99.90;;;;;;5117218;28;20027;-76
2022/08/02 09:35:39;;;;;;;4.90;2.60;;;24.40;99.90;;;;;;5117156;28;20023;-75
2022/08/02 09:38:13;;;;;;;5.85;3.40;;;24.30;99.90;;;;;;5115858;28;20106;-75
2022/08/02 09:40:40;;;;;;;8.20;3.40;;;24.40;99.90;;;;;;5115579;28;20019;-76
2022/08/02 09:43:09;;;;;;;6.88;3.25;;;24.40;99.90;;;;;;5116977;27;20031;-75
2022/08/02 09:45:36;;;;;;;6.35;3.22;;;24.30;99.90;;;;;;5116933;28;20019;-76
2022/08/02 09:48:06;;;;;;;3.40;2.50;;;24.10;99.90;;;;;;5117107;28;20041;-75
2022/08/02 09:50:32;;;;;;;8.50;3.65;;;24.30;99.90;;;;;;5115512;28;20463;-75
2022/08/02 09:53:01;;;;;;;7.40;2.80;;;24.40;99.90;;;;;;5115519;28;20051;-75
2022/08/02 09:55:27;;;;;;;6.03;3.25;;;24.40;99.90;;;;;;5116660;28;20023;-76
2022/08/02 09:57:53;;;;;;;6.32;3.50;;;24.50;99.90;;;;;;5117051;28;20016;-76
2022/08/02 10:00:19;;;;;;;6.13;3.40;;;24.80;99.90;;;;;;5116644;28;20020;-76
2022/08/02 10:03:07;;;;;;;6.43;3.58;;;25.00;99.90;;;;;;5116720;28;20365;-76
2022/08/02 10:05:54;;;;;;;6.82;3.28;;;25.20;99.90;;;;;;5115464;28;20533;-76
2022/08/02 10:08:20;;;;;;;5.68;3.08;;;25.20;99.90;;;;;;5116384;28;20027;-76
2022/08/02 10:10:46;;;;;;;3.53;2.15;;;25.20;99.90;;;;;;5116230;28;20040;-76
2022/08/02 10:13:14;;;;;;;7.10;2.90;;;25.10;99.90;;;;;;5114952;28;20042;-76
2022/08/02 10:15:40;;;;;;;7.43;3.00;;;24.90;99.90;;;;;;5116244;28;20056;-76
2022/08/02 10:18:07;;;;;;;3.40;1.90;;;24.80;99.90;;;;;;5116138;28;20073;-76
2022/08/02 10:20:39;;;;;;;4.95;1.95;;;24.80;99.90;;;;;;5116137;28;20055;-76
2022/08/02 10:23:07;;;;;;;5.03;1.77;;;24.80;99.90;;;;;;5116136;28;20027;-76
2022/08/02 10:25:36;;;;;;;5.85;1.25;;;24.90;99.90;;;;;;5114928;28;20023;-76
2022/08/02 10:28:04;;;;;;;4.32;2.00;;;25.10;99.90;;;;;;5116141;28;20027;-76
2022/08/02 10:30:30;;;;;;;1.37;1.23;;;25.40;99.90;;;;;;5116371;28;20027;-76
2022/08/02 10:32:59;;;;;;;1.45;0.68;;;25.70;99.90;;;;;;5114860;28;20024;-76
2022/08/02 10:35:25;;;;;;;2.10;1.00;;;26.00;99.90;;;;;;5115982;28;20016;-76
2022/08/02 10:37:55;;;;;;;1.85;1.17;;;26.20;99.90;;;;;;5115833;28;20035;-76
2022/08/02 10:40:25;;;;;;;2.35;0.88;;;26.10;99.00;;;;;;5114656;28;20064;-76
2022/08/02 10:42:59;;;;;;;3.38;0.80;;;25.90;99.70;;;;;;5114554;28;20065;-76
2022/08/02 10:45:25;;;;;;;1.08;0.47;;;25.70;99.40;;;;;;5116294;28;20376;-76
2022/08/02 10:48:13;;;;;;;1.20;0.60;;;25.60;99.90;;;;;;5115806;28;20024;-76
2022/08/02 10:50:44;;;;;;;1.23;0.28;;;25.70;98.90;;;;;;5115846;28;20038;-76
2022/08/02 10:53:29;;;;;;;3.90;0.65;;;25.90;97.80;;;;;;5114282;28;20110;-76
2022/08/02 10:56:04;;;;;;;4.03;0.50;;;25.90;97.80;;;;;;5114313;28;20134;-76
2022/08/02 10:58:31;;;;;;;0.50;0.22;;;26.10;96.30;;;;;;5116065;28;20048;-76
2022/08/02 11:01:04;;;;;;;1.20;0.00;;;26.20;95.30;;;;;;5115458;28;20019;-76
2022/08/02 11:03:31;;;;;;;1.17;0.00;;;26.40;96.00;;;;;;5114179;28;20034;-76
2022/08/02 11:06:04;;;;;;;2.65;0.20;;;26.70;96.10;;;;;;5114245;28;20024;-76
2022/08/02 11:08:30;;;;;;;1.48;0.40;;;26.70;93.80;;;;;;5114112;28;20392;-76
2022/08/02 11:11:00;;;;;;;0.85;0.28;;;26.70;93.10;;;;;;5113787;28;20039;-76
2022/08/02 11:13:26;;;;;;;0.50;0.10;;;26.60;92.60;;;;;;5115193;28;20023;-76
2022/08/02 11:16:06;;;;;;;1.85;0.30;;;26.70;93.20;;;;;;5115158;28;20574;-76
2022/08/02 11:18:49;;;;;;;0.85;0.17;;;26.70;91.70;;;;;;5115558;27;20106;-76
2022/08/02 11:21:32;;;;;;;0.85;0.00;;;26.60;93.30;;;;;;5113654;28;20058;-76
2022/08/02 11:24:26;;;;;;;0.65;0.10;;;26.90;93.70;;;;;;5113734;28;20020;-76
2022/08/02 11:26:52;;;;;;;1.85;0.00;;;27.30;93.00;;;;;;5114884;28;20019;-76
2022/08/02 11:29:18;;;;;;;2.72;0.10;;;27.60;91.10;;;;;;5115037;27;20380;-76
2022/08/02 11:31:45;;;;;;;0.30;0.00;;;27.60;89.50;;;;;;5113448;28;20123;-76
2022/08/02 11:34:10;;;;;;;1.00;0.03;;;27.90;91.40;;;;;;5115136;28;20069;-76
2022/08/02 11:36:47;;;;;;;0.60;0.00;;;28.10;86.50;;;;;;5114901;28;20023;-76
2022/08/02 11:39:15;;;;;;;0.30;0.00;;;27.90;84.50;;;;;;5114568;28;20496;-76
2022/08/02 11:41:47;;;;;;;0.82;0.10;;;27.90;84.40;;;;;;5114756;28;20102;-76
2022/08/02 11:44:12;;;;;;;0.10;0.00;;;27.90;82.60;;;;;;5112944;28;20024;-76
2022/08/02 11:46:38;;;;;;;0.93;0.05;;;28.10;83.80;;;;;;5114601;28;20031;-76
2022/08/02 11:49:12;;;;;;;1.08;0.00;;;28.40;82.30;;;;;;5114479;28;20020;-76
2022/08/02 11:51:38;;;;;;;0.95;0.00;;;28.60;83.00;;;;;;5114425;28;20052;-76
2022/08/02 11:54:03;;;;;;;1.15;0.00;;;28.80;79.90;;;;;;5114421;28;20045;-76
2022/08/02 11:56:33;;;;;;;1.58;0.10;;;28.70;78.30;;;;;;5113252;28;20023;-76
2022/08/02 11:59:10;;;;;;;1.00;0.00;;;28.50;77.40;;;;;;5113178;28;20016;-76
2022/08/02 12:01:38;;;;;;;0.98;0.00;;;28.10;78.30;;;;;;5114315;28;20038;-76
2022/08/02 12:04:05;;;;;;;2.25;0.22;;;28.20;80.40;;;;;;5114397;28;20094;-76
2022/08/02 12:06:31;;;;;;;2.28;0.00;;;28.50;80.60;;;;;;5114294;28;20023;-76
2022/08/02 12:09:08;;;;;;;3.10;0.00;;;29.00;79.70;;;;;;5114247;28;20024;-76
2022/08/02 12:11:35;;;;;;;0.85;0.00;;;29.50;77.90;;;;;;5112962;28;20438;-76
2022/08/02 12:14:01;;;;;;;0.80;0.00;;;29.60;74.90;;;;;;5112899;28;20019;-76
2022/08/02 12:19:25;;;;;;;0.47;0.10;;;29.20;74.20;;;;;;5114435;28;20039;-76
2022/08/02 12:22:07;;;;;;;1.35;0.00;;;28.90;73.40;;;;;;5114107;28;20020;-77
2022/08/02 12:24:33;;;;;;;1.77;0.10;;;28.70;75.70;;;;;;5112826;28;20034;-76
2022/08/02 12:26:59;;;;;;;0.93;0.17;;;28.50;74.90;;;;;;5114057;28;20024;-76
2022/08/02 12:29:39;;;;;;;1.25;0.10;;;28.20;73.90;;;;;;5112693;28;20112;-76
2022/08/02 12:32:05;;;;;;;1.35;0.17;;;28.30;77.80;;;;;;5113846;28;20016;-76
2022/08/02 12:34:33;;;;;;;0.85;0.30;;;28.40;75.50;;;;;;5112574;28;20019;-76
2022/08/02 12:37:05;;;;;;;2.13;0.45;;;28.60;75.40;;;;;;5114101;28;20095;-76
2022/08/02 12:39:44;;;;;;;6.28;0.30;;;28.90;74.00;;;;;;5113880;28;20027;-76
2022/08/02 12:42:13;;;;;;;0.68;0.10;;;29.00;72.60;;;;;;5113811;28;20031;-76
2022/08/02 12:44:57;;;;;;;0.90;0.20;;;29.10;73.30;;;;;;5114081;28;20048;-76
2022/08/02 12:47:23;;;;;;;1.05;0.05;;;29.50;71.50;;;;;;5112558;28;20552;-76
2022/08/02 12:50:19;;;;;;;1.20;0.28;;;29.90;72.90;;;;;;5112326;28;20055;-76
2022/08/02 12:52:46;;;;;;;1.45;0.25;;;30.00;67.60;;;;;;5114154;28;20059;-76
2022/08/02 12:55:19;;;;;;;1.27;0.10;;;30.00;67.00;;;;;;5113967;28;20023;-76
2022/08/02 12:58:03;;;;;;;0.57;0.05;;;30.00;65.10;;;;;;5116414;28;20027;-76
2022/08/02 13:00:35;;;;;;;1.35;0.40;;;30.20;67.90;;;;;;5117919;28;20076;-76